createdAt,value
2022-08-16T00:01:51.530Z,20.70
2022-08-16T00:09:26.825Z,20.66
2022-08-16T00:17:19.123Z,20.62
2022-08-16T00:24:55.821Z,20.57
2022-08-16T00:32:32.931Z,20.50
2022-08-16T00:40:33.982Z,20.42
2022-08-16T00:48:30.450Z,20.38
2022-08-16T00:56:06.617Z,20.31
2022-08-16T01:03:44.139Z,20.26
2022-08-16T01:11:26.409Z,20.19
2022-08-16T01:19:06.364Z,20.16
2022-08-16T01:26:48.265Z,20.09
2022-08-16T01:34:25.299Z,20.02
2022-08-16T01:42:03.056Z,19.96
2022-08-16T01:50:40.989Z,19.92
2022-08-16T01:57:39.941Z,19.83
2022-08-16T02:05:30.474Z,19.77
2022-08-16T02:13:08.355Z,19.73
2022-08-16T02:20:47.954Z,19.66
2022-08-16T02:28:24.716Z,19.50
2022-08-16T02:36:00.164Z,19.47
2022-08-16T02:43:36.760Z,19.48
2022-08-16T02:51:12.617Z,19.42
2022-08-16T02:58:50.770Z,19.37
2022-08-16T03:06:41.831Z,19.28
2022-08-16T03:14:21.313Z,19.24
2022-08-16T03:21:58.754Z,19.23
2022-08-16T03:29:34.928Z,19.20
2022-08-16T03:37:09.307Z,19.11
2022-08-16T03:44:47.627Z,19.09
2022-08-16T03:52:31.623Z,19.06
2022-08-16T04:00:20.639Z,19.04
2022-08-16T04:08:22.903Z,18.99
2022-08-16T04:15:59.600Z,18.98
2022-08-16T04:23:34.811Z,18.96
2022-08-16T04:31:12.236Z,18.99
2022-08-16T04:38:46.240Z,18.97
2022-08-16T04:47:01.325Z,18.98
2022-08-16T04:54:15.694Z,19.01
2022-08-16T05:01:59.340Z,19.02
2022-08-16T05:09:36.376Z,19.00
2022-08-16T05:17:11.710Z,18.97
2022-08-16T05:24:46.616Z,18.95
2022-08-16T05:32:32.326Z,19.05
2022-08-16T05:40:10.484Z,19.11
2022-08-16T05:47:48.514Z,19.22
2022-08-16T05:55:35.126Z,19.32
2022-08-16T06:03:16.017Z,19.44
2022-08-16T06:11:05.611Z,19.56
2022-08-16T06:18:45.431Z,19.68
2022-08-16T06:26:20.167Z,19.88
2022-08-16T06:33:55.630Z,19.96
2022-08-16T06:41:39.437Z,20.03
2022-08-16T06:49:15.683Z,20.28
2022-08-16T06:56:52.473Z,20.52
2022-08-16T07:04:32.669Z,20.76
2022-08-16T07:12:10.740Z,21.02
2022-08-16T07:20:04.078Z,21.18
2022-08-16T07:27:40.756Z,21.22
2022-08-16T07:35:16.318Z,21.34
2022-08-16T07:42:50.420Z,21.53
2022-08-16T07:50:57.103Z,21.72
2022-08-16T07:58:34.070Z,21.91
2022-08-16T08:06:10.760Z,22.41
2022-08-16T08:13:45.708Z,22.71
2022-08-16T08:21:27.221Z,22.93
2022-08-16T08:29:02.150Z,23.06
2022-08-16T08:36:37.660Z,23.55
2022-08-16T08:44:28.041Z,23.93
2022-08-16T08:52:07.962Z,24.92
2022-08-16T08:59:42.108Z,25.13
2022-08-16T09:07:17.755Z,25.46
2022-08-16T09:14:53.031Z,26.59
2022-08-16T09:22:29.214Z,27.16
2022-08-16T09:30:34.461Z,27.60
2022-08-16T09:38:01.463Z,27.08
2022-08-16T09:45:39.209Z,26.96
2022-08-16T09:53:16.951Z,27.39
2022-08-16T10:00:51.456Z,27.20
2022-08-16T10:08:27.456Z,27.36
2022-08-16T10:16:02.170Z,27.28
2022-08-16T10:23:38.470Z,27.39
2022-08-16T10:31:16.725Z,27.42
2022-08-16T10:39:08.572Z,27.45
2022-08-16T10:46:43.882Z,27.43
2022-08-16T10:54:21.309Z,27.47
2022-08-16T11:26:20.673Z,27.37
2022-08-16T11:33:53.555Z,27.33
2022-08-16T11:41:32.354Z,27.39
2022-08-16T11:49:12.791Z,27.70
2022-08-16T11:56:56.915Z,27.77
2022-08-16T12:04:31.742Z,27.97
2022-08-16T12:12:07.996Z,27.93
2022-08-16T12:19:42.608Z,27.97
2022-08-16T12:27:18.282Z,28.01
2022-08-16T12:34:52.852Z,27.82
2022-08-16T12:42:34.714Z,27.88
2022-08-16T12:50:14.923Z,27.89
2022-08-16T12:57:58.456Z,27.85
2022-08-16T13:05:42.895Z,27.90
2022-08-16T13:13:29.418Z,27.90
2022-08-16T13:21:05.128Z,27.93
2022-08-16T13:28:40.270Z,27.97
2022-08-16T13:36:38.708Z,28.12
2022-08-16T13:44:17.287Z,28.24
2022-08-16T13:51:52.056Z,28.41
2022-08-16T13:59:29.516Z,28.47
2022-08-16T14:07:06.384Z,28.71
2022-08-16T14:14:42.143Z,28.61
2022-08-16T14:22:31.436Z,28.91
2022-08-16T14:30:15.501Z,28.91
2022-08-16T14:37:52.637Z,28.81
2022-08-16T14:45:32.478Z,28.77
2022-08-16T14:53:09.675Z,28.61
2022-08-16T15:00:45.244Z,28.83
2022-08-16T15:08:20.346Z,29.01
2022-08-16T15:15:57.591Z,29.16
2022-08-16T15:23:36.383Z,29.12
2022-08-16T15:31:15.967Z,29.58
2022-08-16T15:39:02.650Z,29.78
2022-08-16T15:46:56.745Z,29.97
2022-08-16T15:54:33.584Z,30.10
2022-08-16T16:02:08.881Z,30.24
2022-08-16T16:09:44.613Z,30.35
2022-08-16T16:17:20.913Z,30.26
2022-08-16T16:24:54.746Z,30.32
2022-08-16T16:32:34.282Z,30.43
2022-08-16T16:40:11.101Z,30.30
2022-08-16T16:47:49.601Z,30.10
2022-08-16T16:55:28.830Z,29.69
2022-08-16T17:03:04.911Z,29.45
2022-08-16T17:10:45.870Z,29.22
2022-08-16T17:19:14.757Z,28.90
2022-08-16T17:26:18.673Z,28.69
2022-08-16T17:33:55.309Z,28.47
2022-08-16T17:41:29.340Z,28.21
2022-08-16T17:49:05.007Z,27.98
2022-08-16T17:56:38.818Z,27.73
2022-08-16T18:04:14.102Z,27.47
2022-08-16T18:12:44.772Z,27.20
2022-08-16T18:20:33.359Z,26.93
2022-08-16T18:28:07.108Z,26.66
2022-08-16T18:35:42.289Z,26.43
2022-08-16T18:43:18.337Z,26.17
2022-08-16T18:50:58.805Z,25.93
2022-08-16T18:58:39.273Z,25.68
2022-08-16T19:06:15.663Z,25.44
2022-08-16T19:13:50.432Z,25.19
2022-08-16T19:21:25.714Z,25.00
2022-08-16T19:29:03.337Z,24.78
2022-08-16T19:36:43.552Z,24.56
2022-08-16T19:44:19.294Z,24.40
2022-08-16T19:51:54.956Z,24.25
2022-08-16T19:59:40.159Z,24.08
2022-08-16T20:07:16.525Z,23.97
2022-08-16T20:14:51.230Z,23.83
2022-08-16T20:22:51.743Z,23.65
2022-08-16T20:30:22.392Z,23.51
2022-08-16T20:37:57.739Z,23.40
2022-08-16T20:45:31.710Z,23.27
2022-08-16T20:53:08.191Z,23.12
2022-08-16T21:00:42.117Z,23.01
2022-08-16T21:08:50.956Z,22.86
2022-08-16T21:16:12.624Z,22.73
2022-08-16T21:23:47.691Z,22.60
2022-08-16T21:31:21.520Z,22.49
2022-08-16T21:38:56.663Z,22.39
2022-08-16T21:46:30.603Z,22.33
2022-08-16T21:54:07.407Z,22.27
2022-08-16T22:01:43.514Z,22.10
2022-08-16T22:09:18.994Z,21.97
2022-08-16T22:16:53.294Z,21.89
2022-08-16T22:24:31.186Z,21.78
2022-08-16T22:32:07.052Z,21.70
2022-08-16T22:39:42.311Z,21.62
2022-08-16T22:47:16.304Z,21.57
2022-08-16T22:54:53.367Z,21.50
2022-08-16T23:02:27.304Z,21.39
2022-08-16T23:37:23.760Z,20.94
2022-08-16T23:44:59.391Z,20.86
2022-08-16T23:52:53.083Z,20.84
